createdAt,value
2022-08-16T00:04:07.341Z,95793.00
2022-08-16T00:08:36.529Z,95794.00
2022-08-16T00:12:41.650Z,95795.00
2022-08-16T00:17:00.957Z,95801.00
2022-08-16T00:21:08.158Z,95805.00
2022-08-16T00:25:16.329Z,95800.00
2022-08-16T00:29:19.559Z,95797.00
2022-08-16T00:33:25.309Z,95789.00
2022-08-16T00:37:58.882Z,95801.00
2022-08-16T00:41:54.409Z,95797.00
2022-08-16T00:46:33.611Z,95802.00
2022-08-16T00:50:36.418Z,95807.00
2022-08-16T00:54:40.191Z,95802.00
2022-08-16T00:58:49.647Z,95801.00
2022-08-16T01:02:53.928Z,95797.00
2022-08-16T01:07:01.043Z,95813.00
2022-08-16T01:11:07.931Z,95812.00
2022-08-16T01:15:13.926Z,95810.00
2022-08-16T01:19:23.514Z,95812.00
2022-08-16T01:23:58.593Z,95813.00
2022-08-16T01:28:01.494Z,95814.00
2022-08-16T01:32:05.463Z,95822.00
2022-08-16T01:36:13.308Z,95824.00
2022-08-16T01:40:18.522Z,95822.00
2022-08-16T01:44:23.618Z,95825.00
2022-08-16T01:48:40.880Z,95822.00
2022-08-16T01:52:49.600Z,95828.00
2022-08-16T01:56:52.951Z,95829.00
2022-08-16T02:00:58.107Z,95832.00
2022-08-16T02:05:01.625Z,95816.00
2022-08-16T02:09:11.581Z,95817.00
2022-08-16T02:13:15.101Z,95824.00
2022-08-16T02:17:19.703Z,95821.00
2022-08-16T02:21:31.513Z,95819.00
2022-08-16T02:25:52.351Z,95820.00
2022-08-16T02:30:05.331Z,95820.00
2022-08-16T02:34:10.346Z,95809.00
2022-08-16T02:38:15.278Z,95800.00
2022-08-16T02:42:19.985Z,95783.00
2022-08-16T02:46:33.291Z,95799.00
2022-08-16T02:50:55.462Z,95801.00
2022-08-16T02:55:01.833Z,95794.00
2022-08-16T02:59:11.675Z,95797.00
2022-08-16T03:03:18.428Z,95797.00
2022-08-16T03:07:27.627Z,95782.00
2022-08-16T03:11:35.346Z,95780.00
2022-08-16T03:15:38.898Z,95781.00
2022-08-16T03:19:48.628Z,95773.00
2022-08-16T03:24:05.392Z,95768.00
2022-08-16T03:28:10.019Z,95775.00
2022-08-16T03:32:14.571Z,95770.00
2022-08-16T03:36:32.624Z,95787.00
2022-08-16T03:40:39.462Z,95783.00
2022-08-16T03:44:49.569Z,95790.00
2022-08-16T03:48:53.808Z,95795.00
2022-08-16T03:53:03.167Z,95797.00
2022-08-16T03:57:11.334Z,95804.00
2022-08-16T04:01:18.786Z,95801.00
2022-08-16T04:05:22.157Z,95806.00
2022-08-16T04:09:25.726Z,95798.00
2022-08-16T04:14:01.658Z,95791.00
2022-08-16T04:17:55.034Z,95802.00
2022-08-16T04:21:58.478Z,95799.00
2022-08-16T04:26:04.258Z,95801.00
2022-08-16T04:30:12.551Z,95815.00
2022-08-16T04:34:37.327Z,95816.00
2022-08-16T04:38:41.171Z,95818.00
2022-08-16T04:42:46.039Z,95816.00
2022-08-16T04:47:01.361Z,95824.00
2022-08-16T04:51:08.037Z,95830.00
2022-08-16T04:55:18.642Z,95828.00
2022-08-16T04:59:22.313Z,95825.00
2022-08-16T05:03:27.036Z,95825.00
2022-08-16T05:07:30.396Z,95827.00
2022-08-16T05:11:33.856Z,95834.00
2022-08-16T05:15:37.957Z,95831.00
2022-08-16T05:19:46.569Z,95845.00
2022-08-16T05:24:01.886Z,95839.00
2022-08-16T05:28:05.605Z,95849.00
2022-08-16T05:32:32.036Z,95855.00
2022-08-16T05:36:36.605Z,95859.00
2022-08-16T05:40:40.350Z,95852.00
2022-08-16T05:44:48.283Z,95861.00
2022-08-16T05:48:54.978Z,95863.00
2022-08-16T05:53:01.004Z,95870.00
2022-08-16T05:57:05.260Z,95870.00
2022-08-16T06:01:08.677Z,95869.00
2022-08-16T06:05:14.550Z,95864.00
2022-08-16T06:09:19.757Z,95867.00
2022-08-16T06:13:22.945Z,95878.00
2022-08-16T06:17:42.928Z,95883.00
2022-08-16T06:21:55.115Z,95883.00
2022-08-16T06:26:00.825Z,95886.00
2022-08-16T06:30:05.807Z,95881.00
2022-08-16T06:34:56.102Z,95882.00
2022-08-16T06:38:34.597Z,95874.00
2022-08-16T06:42:47.478Z,95885.00
2022-08-16T06:46:57.355Z,95892.00
2022-08-16T06:51:00.973Z,95891.00
2022-08-16T06:55:05.787Z,95905.00
2022-08-16T06:59:10.644Z,95903.00
2022-08-16T07:03:27.986Z,95903.00
2022-08-16T07:07:36.364Z,95900.00
2022-08-16T07:11:47.302Z,95894.00
2022-08-16T07:15:53.590Z,95895.00
2022-08-16T07:20:03.153Z,95897.00
2022-08-16T07:24:30.565Z,95902.00
2022-08-16T07:28:35.492Z,95900.00
2022-08-16T07:32:40.250Z,95902.00
2022-08-16T07:36:58.242Z,95904.00
2022-08-16T07:41:09.853Z,95906.00
2022-08-16T07:45:14.067Z,95912.00
2022-08-16T07:49:21.667Z,95914.00
2022-08-16T07:53:24.773Z,95910.00
2022-08-16T07:57:36.269Z,95910.00
2022-08-16T08:01:41.376Z,95905.00
2022-08-16T08:05:46.743Z,95911.00
2022-08-16T08:09:50.607Z,95911.00
2022-08-16T08:13:55.429Z,95918.00
2022-08-16T08:18:29.523Z,95925.00
2022-08-16T08:22:27.369Z,95918.00
2022-08-16T08:26:30.720Z,95914.00
2022-08-16T08:30:52.414Z,95919.00
2022-08-16T08:35:03.079Z,95925.00
2022-08-16T08:39:13.253Z,95924.00
2022-08-16T08:43:18.477Z,95928.00
2022-08-16T08:47:22.985Z,95927.00
2022-08-16T08:51:27.580Z,95921.00
2022-08-16T08:55:36.805Z,95918.00
2022-08-16T08:59:40.625Z,95927.00
2022-08-16T09:03:44.466Z,95930.00
2022-08-16T09:07:54.787Z,95935.00
2022-08-16T09:12:07.451Z,95936.00
2022-08-16T09:16:10.809Z,95934.00
2022-08-16T09:20:34.733Z,95934.00
2022-08-16T09:25:04.418Z,95931.00
2022-08-16T09:29:23.943Z,95933.00
2022-08-16T09:33:41.077Z,95934.00
2022-08-16T09:37:44.194Z,95929.00
2022-08-16T09:42:04.504Z,95934.00
2022-08-16T09:46:33.326Z,95928.00
2022-08-16T09:50:39.142Z,95928.00
2022-08-16T09:54:44.584Z,95936.00
2022-08-16T09:59:05.812Z,95930.00
2022-08-16T10:03:16.351Z,95934.00
2022-08-16T10:07:19.710Z,95935.00
2022-08-16T10:11:50.430Z,95926.00
2022-08-16T10:15:56.072Z,95923.00
2022-08-16T10:20:00.736Z,95915.00
2022-08-16T10:24:04.046Z,95915.00
2022-08-16T10:28:27.598Z,95917.00
2022-08-16T10:32:32.089Z,95918.00
2022-08-16T10:36:38.903Z,95916.00
2022-08-16T10:40:45.520Z,95915.00
2022-08-16T10:44:53.671Z,95923.00
2022-08-16T10:48:58.340Z,95918.00
2022-08-16T10:53:07.543Z,95916.00
2022-08-16T10:57:11.986Z,95922.00
2022-08-16T11:01:39.805Z,95912.00
2022-08-16T11:11:05.046Z,95912.00
2022-08-16T11:14:30.499Z,95915.00
2022-08-16T11:19:03.026Z,95901.00
2022-08-16T11:22:59.158Z,95907.00
2022-08-16T11:27:24.083Z,95899.00
2022-08-16T11:31:29.655Z,95904.00
2022-08-16T11:35:44.572Z,95901.00
2022-08-16T11:39:48.123Z,95904.00
2022-08-16T11:44:00.075Z,95898.00
2022-08-16T11:48:04.113Z,95899.00
2022-08-16T11:52:07.485Z,95900.00
2022-08-16T11:56:11.091Z,95896.00
2022-08-16T12:00:43.513Z,95898.00
2022-08-16T12:04:44.610Z,95899.00
2022-08-16T12:08:48.919Z,95902.00
2022-08-16T12:12:52.270Z,95897.00
2022-08-16T12:16:58.223Z,95885.00
2022-08-16T12:21:01.769Z,95894.00
2022-08-16T12:25:08.305Z,95897.00
2022-08-16T12:29:11.649Z,95899.00
2022-08-16T12:33:25.695Z,95895.00
2022-08-16T12:37:30.478Z,95889.00
2022-08-16T12:41:37.905Z,95892.00
2022-08-16T12:45:50.939Z,95881.00
2022-08-16T12:49:56.397Z,95890.00
2022-08-16T12:54:02.623Z,95890.00
2022-08-16T12:58:14.062Z,95880.00
2022-08-16T13:02:33.871Z,95883.00
2022-08-16T13:06:41.386Z,95878.00
2022-08-16T13:10:47.012Z,95882.00
2022-08-16T13:14:55.970Z,95883.00
2022-08-16T13:18:59.321Z,95883.00
2022-08-16T13:23:06.674Z,95875.00
2022-08-16T13:27:09.841Z,95882.00
2022-08-16T13:31:13.336Z,95878.00
2022-08-16T13:35:18.615Z,95880.00
2022-08-16T13:39:24.840Z,95874.00
2022-08-16T13:43:28.875Z,95865.00
2022-08-16T13:47:36.111Z,95868.00
2022-08-16T13:51:39.960Z,95868.00
2022-08-16T13:55:45.046Z,95857.00
2022-08-16T14:00:00.913Z,95853.00
2022-08-16T14:04:04.431Z,95862.00
2022-08-16T14:08:07.688Z,95856.00
2022-08-16T14:12:20.570Z,95855.00
2022-08-16T14:16:33.988Z,95850.00
2022-08-16T14:20:37.597Z,95858.00
2022-08-16T14:24:41.212Z,95850.00
2022-08-16T14:28:51.127Z,95845.00
2022-08-16T14:32:54.564Z,95862.00
2022-08-16T14:36:57.792Z,95852.00
2022-08-16T14:41:02.855Z,95853.00
2022-08-16T14:45:14.059Z,95840.00
2022-08-16T14:49:17.270Z,95847.00
2022-08-16T14:53:20.534Z,95839.00
2022-08-16T14:57:23.717Z,95838.00
2022-08-16T15:01:57.263Z,95834.00
2022-08-16T15:05:53.774Z,95836.00
2022-08-16T15:10:01.110Z,95836.00
2022-08-16T15:14:05.548Z,95835.00
2022-08-16T15:18:11.788Z,95831.00
2022-08-16T15:22:23.326Z,95823.00
2022-08-16T15:26:34.573Z,95824.00
2022-08-16T15:30:59.324Z,95827.00
2022-08-16T15:35:07.629Z,95822.00
2022-08-16T15:39:30.494Z,95821.00
2022-08-16T15:43:39.877Z,95830.00
2022-08-16T15:47:48.298Z,95818.00
2022-08-16T15:52:01.618Z,95818.00
2022-08-16T15:56:06.918Z,95828.00
2022-08-16T16:00:14.795Z,95830.00
2022-08-16T16:04:22.888Z,95835.00
2022-08-16T16:08:31.026Z,95824.00
2022-08-16T16:12:53.271Z,95829.00
2022-08-16T16:17:00.573Z,95834.00
2022-08-16T16:21:09.167Z,95824.00
2022-08-16T16:25:15.951Z,95826.00
2022-08-16T16:29:19.463Z,95826.00
2022-08-16T16:33:25.007Z,95827.00
2022-08-16T16:37:28.282Z,95821.00
2022-08-16T16:41:33.392Z,95815.00
2022-08-16T16:45:37.388Z,95818.00
2022-08-16T16:49:45.478Z,95819.00
2022-08-16T16:53:56.167Z,95815.00
2022-08-16T16:58:35.305Z,95826.00
2022-08-16T17:02:49.203Z,95821.00
2022-08-16T17:06:57.571Z,95828.00
2022-08-16T17:11:01.014Z,95817.00
2022-08-16T17:15:07.710Z,95826.00
2022-08-16T17:19:17.254Z,95826.00
2022-08-16T17:23:59.255Z,95826.00
2022-08-16T17:27:51.141Z,95825.00
2022-08-16T17:32:02.423Z,95831.00
2022-08-16T17:36:36.648Z,95846.00
2022-08-16T17:40:55.945Z,95837.00
2022-08-16T17:45:01.745Z,95838.00
2022-08-16T17:49:06.645Z,95847.00
2022-08-16T17:53:10.480Z,95846.00
2022-08-16T17:57:13.726Z,95845.00
2022-08-16T18:01:26.111Z,95847.00
2022-08-16T18:05:32.018Z,95848.00
2022-08-16T18:09:35.633Z,95851.00
2022-08-16T18:13:43.466Z,95852.00
2022-08-16T18:17:46.832Z,95858.00
2022-08-16T18:22:08.693Z,95853.00
2022-08-16T18:26:12.278Z,95853.00
2022-08-16T18:30:17.669Z,95851.00
2022-08-16T18:34:21.470Z,95859.00
2022-08-16T18:38:26.115Z,95856.00
2022-08-16T18:42:29.342Z,95853.00
2022-08-16T18:46:32.590Z,95861.00
2022-08-16T18:51:00.015Z,95868.00
2022-08-16T18:55:13.801Z,95855.00
2022-08-16T18:59:18.193Z,95860.00
2022-08-16T19:03:27.302Z,95865.00
2022-08-16T19:07:32.230Z,95863.00
2022-08-16T19:11:36.953Z,95864.00
2022-08-16T19:15:42.029Z,95872.00
2022-08-16T19:20:17.032Z,95875.00
2022-08-16T19:24:20.258Z,95887.00
2022-08-16T19:28:51.223Z,95883.00
2022-08-16T19:32:52.100Z,95892.00
2022-08-16T19:36:56.578Z,95895.00
2022-08-16T19:40:59.836Z,95896.00
2022-08-16T19:45:05.719Z,95899.00
2022-08-16T19:49:08.934Z,95905.00
2022-08-16T19:53:18.660Z,95905.00
2022-08-16T19:57:23.419Z,95903.00
2022-08-16T20:01:27.982Z,95903.00
2022-08-16T20:05:35.385Z,95913.00
2022-08-16T20:09:38.669Z,95911.00
2022-08-16T20:13:44.036Z,95918.00
2022-08-16T20:17:49.237Z,95908.00
2022-08-16T20:22:01.738Z,95908.00
2022-08-16T20:26:05.303Z,95916.00
2022-08-16T20:30:11.505Z,95922.00
2022-08-16T20:34:16.529Z,95921.00
2022-08-16T20:38:20.468Z,95932.00
2022-08-16T20:42:26.647Z,95934.00
2022-08-16T20:46:29.975Z,95934.00
2022-08-16T20:50:35.461Z,95941.00
2022-08-16T20:54:39.056Z,95939.00
2022-08-16T20:58:42.747Z,95943.00
2022-08-16T21:02:46.803Z,95944.00
2022-08-16T21:06:53.577Z,95943.00
2022-08-16T21:10:58.946Z,95955.00
2022-08-16T21:15:24.570Z,95949.00
2022-08-16T21:19:28.681Z,95945.00
2022-08-16T21:23:33.173Z,95951.00
2022-08-16T21:27:39.523Z,95947.00
2022-08-16T21:32:06.325Z,95952.00
2022-08-16T21:36:10.004Z,95948.00
2022-08-16T21:40:14.700Z,95942.00
2022-08-16T21:44:17.869Z,95952.00
2022-08-16T21:48:33.771Z,95953.00
2022-08-16T21:52:37.664Z,95957.00
2022-08-16T21:56:42.294Z,95951.00
